Time;durP1;ratioP1;P1;durP2;ratioP2;P2;SDS_P1;SDS_P2;PMS_P1;PMS_P2;Temp;Humidity;BMP_temperature;BMP_pressure;BME280_temperature;BME280_humidity;BME280_pressure;Samples;Min_cycle;Max_cycle;Signal;HPM_P1;HPM_P2
2021/09/21 00:01:50;;;;;;;9.90;8.90;;;13.10;99.90;;;;;;6088971;23;21000;-82
2021/09/21 00:04:28;;;;;;;11.27;10.13;;;13.10;99.90;;;;;;6089028;22;20605;-83
2021/09/21 00:07:10;;;;;;;9.10;8.20;;;13.10;99.90;;;;;;6088393;23;20633;-82
2021/09/21 00:09:57;;;;;;;9.60;8.70;;;13.10;99.90;;;;;;6089120;23;20635;-82
2021/09/21 00:12:30;;;;;;;10.60;9.43;;;13.20;99.90;;;;;;6088668;23;20585;-82
2021/09/21 00:15:01;;;;;;;10.30;9.10;;;13.30;99.90;;;;;;6088934;22;20589;-83
2021/09/21 00:17:44;;;;;;;10.30;8.17;;;13.20;99.90;;;;;;6088833;23;20946;-82
2021/09/21 00:20:31;;;;;;;11.53;9.37;;;13.20;99.90;;;;;;6087826;23;20679;-82
2021/09/21 00:23:13;;;;;;;9.93;8.83;;;13.10;99.90;;;;;;6088693;22;21195;-82
2021/09/21 00:25:52;;;;;;;10.73;8.60;;;13.00;99.90;;;;;;6088566;23;20531;-83
2021/09/21 00:28:36;;;;;;;9.43;8.53;;;12.90;99.90;;;;;;6088293;23;20610;-83
2021/09/21 00:31:18;;;;;;;10.77;9.67;;;12.90;99.90;;;;;;6090229;23;20575;-83
2021/09/21 00:34:10;;;;;;;8.93;8.03;;;12.90;99.90;;;;;;6088683;23;20591;-83
2021/09/21 00:36:48;;;;;;;10.13;8.90;;;13.00;99.90;;;;;;6089557;23;20534;-83
2021/09/21 00:39:27;;;;;;;12.13;9.33;;;13.00;99.90;;;;;;6090203;23;20669;-83
2021/09/21 00:42:22;;;;;;;10.70;9.60;;;13.00;99.90;;;;;;6090315;23;20559;-83
2021/09/21 00:45:09;;;;;;;10.63;9.37;;;13.00;99.90;;;;;;6089018;23;21152;-82
2021/09/21 00:47:50;;;;;;;11.20;10.03;;;13.00;99.90;;;;;;6089644;23;21179;-82
2021/09/21 00:50:29;;;;;;;9.73;8.73;;;12.90;99.90;;;;;;6090149;23;20659;-82
2021/09/21 00:53:14;;;;;;;10.70;8.67;;;12.90;99.90;;;;;;6089880;23;20574;-83
2021/09/21 00:55:56;;;;;;;10.27;9.27;;;12.90;99.90;;;;;;6089971;23;20613;-82
2021/09/21 00:58:37;;;;;;;10.17;9.20;;;13.00;99.90;;;;;;6089072;23;20544;-82
2021/09/21 01:01:10;;;;;;;10.83;9.70;;;13.00;99.90;;;;;;6090243;23;21079;-82
2021/09/21 01:03:57;;;;;;;9.50;8.57;;;13.00;99.90;;;;;;6087993;23;20710;-82
2021/09/21 01:06:45;;;;;;;10.87;9.60;;;13.00;99.90;;;;;;6081299;23;20638;-82
2021/09/21 01:09:32;;;;;;;13.43;9.40;;;13.00;99.90;;;;;;6088485;23;20657;-82
2021/09/21 01:12:19;;;;;;;10.83;9.73;;;13.00;99.90;;;;;;6089422;23;20589;-82
2021/09/21 01:15:06;;;;;;;11.23;10.13;;;12.90;99.90;;;;;;6089743;23;20542;-83
2021/09/21 01:17:56;;;;;;;10.63;9.57;;;13.00;99.90;;;;;;6088575;23;20583;-82
2021/09/21 01:20:43;;;;;;;11.67;10.23;;;13.00;99.90;;;;;;6090370;23;20666;-82
2021/09/21 01:23:20;;;;;;;10.77;9.67;;;12.90;99.90;;;;;;6089643;23;20677;-83
2021/09/21 01:26:07;;;;;;;11.90;10.30;;;13.00;99.90;;;;;;6090189;23;20632;-83
2021/09/21 01:28:54;;;;;;;12.43;10.60;;;12.90;99.90;;;;;;6088476;23;21270;-83
2021/09/21 01:31:41;;;;;;;12.27;10.80;;;12.90;99.90;;;;;;6088862;23;20661;-82
2021/09/21 01:34:28;;;;;;;10.97;9.90;;;13.00;99.90;;;;;;6088289;23;20618;-82
2021/09/21 01:37:16;;;;;;;12.03;10.50;;;13.00;99.90;;;;;;6088261;23;20669;-82
2021/09/21 01:40:05;;;;;;;12.73;10.20;;;13.00;99.90;;;;;;6088473;23;20598;-83
2021/09/21 01:42:52;;;;;;;11.97;10.83;;;13.10;99.90;;;;;;6088509;23;20583;-83
2021/09/21 01:45:39;;;;;;;12.63;10.77;;;13.10;99.90;;;;;;6088511;23;20653;-83
2021/09/21 01:48:26;;;;;;;10.40;9.30;;;13.00;99.90;;;;;;6088980;23;20633;-83
2021/09/21 01:51:15;;;;;;;13.63;10.90;;;13.10;99.90;;;;;;6088987;23;20617;-82
2021/09/21 01:54:14;;;;;;;11.93;10.27;;;13.10;99.90;;;;;;6089866;23;20606;-82
2021/09/21 02:00:08;;;;;;;11.83;10.63;;;13.10;99.90;;;;;;6088401;23;21131;-82
2021/09/21 02:02:55;;;;;;;12.83;10.00;;;13.20;99.90;;;;;;6088364;23;20953;-82
2021/09/21 02:05:42;;;;;;;13.70;9.67;;;13.10;99.90;;;;;;6088557;23;20618;-82
2021/09/21 02:08:29;;;;;;;11.97;10.20;;;13.00;99.90;;;;;;6088640;23;20722;-82
2021/09/21 02:11:16;;;;;;;11.03;9.93;;;13.00;99.90;;;;;;6088685;23;20677;-82
2021/09/21 02:14:08;;;;;;;11.23;10.20;;;13.00;99.90;;;;;;6088598;23;21204;-82
2021/09/21 02:16:55;;;;;;;12.17;10.47;;;13.00;99.90;;;;;;6080570;23;20614;-82
2021/09/21 02:19:42;;;;;;;13.40;10.80;;;13.00;99.90;;;;;;6087929;23;20924;-82
2021/09/21 02:22:29;;;;;;;11.53;10.33;;;13.00;99.90;;;;;;6089537;23;20636;-82
2021/09/21 02:25:10;;;;;;;11.43;10.23;;;13.10;99.90;;;;;;6090043;23;20631;-82
2021/09/21 02:27:53;;;;;;;11.00;9.70;;;13.00;99.90;;;;;;6088543;23;20586;-82
2021/09/21 02:30:41;;;;;;;10.63;9.60;;;13.00;99.90;;;;;;6088409;23;20585;-82
2021/09/21 02:33:28;;;;;;;14.43;9.70;;;13.00;99.90;;;;;;6089438;23;20636;-82
2021/09/21 02:36:15;;;;;;;10.50;9.40;;;13.00;99.90;;;;;;6089382;23;20632;-82
2021/09/21 02:39:02;;;;;;;13.57;10.57;;;12.90;99.90;;;;;;6088347;23;20972;-82
2021/09/21 02:41:49;;;;;;;11.43;10.23;;;13.00;99.90;;;;;;6088152;23;20582;-82
2021/09/21 02:44:37;;;;;;;10.30;9.20;;;13.10;99.90;;;;;;6088153;23;20639;-82
2021/09/21 02:47:25;;;;;;;11.13;9.93;;;13.10;99.90;;;;;;6088362;23;21000;-82
2021/09/21 02:50:12;;;;;;;10.90;9.73;;;13.00;99.90;;;;;;6088185;23;20668;-82
2021/09/21 02:52:59;;;;;;;11.50;8.97;;;12.90;99.90;;;;;;6087451;23;21148;-82
2021/09/21 02:55:46;;;;;;;10.20;9.20;;;12.80;99.90;;;;;;6082705;23;20615;-82
2021/09/21 02:58:33;;;;;;;12.03;10.43;;;12.70;99.90;;;;;;6083837;23;21154;-82
2021/09/21 03:01:20;;;;;;;10.03;9.13;;;12.70;99.90;;;;;;6085758;23;20656;-82
2021/09/21 03:04:14;;;;;;;12.80;9.23;;;12.70;99.90;;;;;;6086880;23;20599;-82
2021/09/21 03:07:04;;;;;;;9.40;8.50;;;12.60;99.90;;;;;;6086541;23;20609;-82
2021/09/21 03:09:55;;;;;;;10.80;9.23;;;12.60;99.90;;;;;;6085754;23;20620;-82
2021/09/21 03:18:50;;;;;;;12.40;9.80;;;12.50;99.90;;;;;;6085504;23;20575;-82
2021/09/21 03:21:38;;;;;;;10.13;9.13;;;12.60;99.90;;;;;;6085812;23;20685;-82
2021/09/21 03:24:25;;;;;;;11.50;10.30;;;12.70;99.90;;;;;;6085490;23;21127;-82
2021/09/21 03:27:12;;;;;;;10.90;9.60;;;12.80;99.90;;;;;;6078480;23;20694;-82
2021/09/21 03:29:59;;;;;;;10.67;9.53;;;12.80;99.90;;;;;;6085916;23;20721;-81
2021/09/21 03:32:45;;;;;;;11.13;9.87;;;12.80;99.90;;;;;;6085173;23;20641;-82
2021/09/21 03:35:32;;;;;;;10.93;9.70;;;12.80;99.90;;;;;;6085493;23;20958;-82
2021/09/21 03:38:21;;;;;;;11.50;10.40;;;12.80;99.90;;;;;;6085012;23;21210;-82
2021/09/21 03:41:07;;;;;;;15.93;11.10;;;12.70;99.90;;;;;;6087050;23;21172;-82
2021/09/21 03:43:54;;;;;;;12.23;10.97;;;12.70;99.90;;;;;;6085824;23;20673;-82
2021/09/21 03:46:41;;;;;;;12.63;10.80;;;12.70;99.90;;;;;;6085485;23;20636;-82
2021/09/21 03:49:28;;;;;;;12.27;10.97;;;12.80;99.90;;;;;;6085289;23;20613;-82
2021/09/21 03:52:15;;;;;;;11.30;10.10;;;12.90;99.90;;;;;;6087311;23;20595;-82
2021/09/21 03:55:04;;;;;;;13.80;10.63;;;12.80;99.90;;;;;;6084139;23;20626;-82
2021/09/21 03:57:51;;;;;;;12.77;9.73;;;12.80;99.90;;;;;;6084677;23;20724;-82
2021/09/21 04:00:38;;;;;;;12.00;10.70;;;12.80;99.90;;;;;;6085433;23;20594;-82
2021/09/21 04:03:25;;;;;;;12.53;11.13;;;12.80;99.90;;;;;;6086653;23;20644;-82
2021/09/21 04:06:12;;;;;;;11.43;9.83;;;12.90;99.90;;;;;;6086242;23;20689;-82
2021/09/21 04:08:58;;;;;;;23.03;10.87;;;12.90;99.90;;;;;;6086595;23;21033;-82
2021/09/21 04:11:47;;;;;;;11.80;10.60;;;12.90;99.90;;;;;;6087645;23;20659;-82
2021/09/21 04:14:34;;;;;;;12.40;11.13;;;12.70;99.90;;;;;;6086514;23;21441;-82
2021/09/21 04:17:21;;;;;;;12.70;10.73;;;12.70;99.90;;;;;;6087220;23;20597;-82
2021/09/21 04:20:09;;;;;;;11.70;10.33;;;12.60;99.90;;;;;;6086636;23;21489;-82
2021/09/21 04:22:56;;;;;;;10.73;9.63;;;12.70;99.90;;;;;;6086584;23;20620;-82
2021/09/21 04:25:43;;;;;;;13.80;10.87;;;12.60;99.90;;;;;;6086871;23;20657;-83
2021/09/21 04:28:31;;;;;;;11.20;10.00;;;12.50;99.90;;;;;;6085723;23;20667;-83
2021/09/21 04:31:23;;;;;;;11.77;10.57;;;12.80;99.90;;;;;;6086921;23;20585;-82
2021/09/21 04:34:14;;;;;;;12.63;11.27;;;12.70;99.90;;;;;;6088012;23;20598;-82
2021/09/21 04:37:01;;;;;;;12.40;11.07;;;12.50;99.90;;;;;;6080707;23;20671;-82
2021/09/21 04:39:49;;;;;;;15.13;11.40;;;12.30;99.90;;;;;;6087888;23;20667;-82
2021/09/21 04:42:36;;;;;;;14.50;9.70;;;12.30;99.90;;;;;;6087184;23;20638;-82
2021/09/21 04:45:24;;;;;;;13.00;10.70;;;12.40;99.90;;;;;;6088090;23;20696;-82
2021/09/21 04:48:11;;;;;;;13.70;11.20;;;12.40;99.90;;;;;;6088038;23;20647;-82
2021/09/21 04:50:59;;;;;;;12.13;10.20;;;12.40;99.90;;;;;;6088434;23;20586;-82
2021/09/21 04:53:46;;;;;;;10.97;9.90;;;12.30;99.90;;;;;;6089436;23;20655;-83
2021/09/21 04:56:33;;;;;;;13.33;11.13;;;12.20;99.90;;;;;;6087186;23;20642;-83
2021/09/21 04:59:20;;;;;;;11.60;10.40;;;12.20;99.90;;;;;;6088569;23;20609;-82
2021/09/21 05:01:58;;;;;;;17.77;11.93;;;12.30;99.90;;;;;;6090052;23;20538;-82
2021/09/21 05:04:45;;;;;;;12.73;11.27;;;12.30;99.90;;;;;;6088715;23;20621;-83
2021/09/21 05:07:22;;;;;;;15.43;12.03;;;12.30;99.90;;;;;;6089318;23;20545;-82
2021/09/21 05:10:10;;;;;;;11.23;10.13;;;12.20;99.90;;;;;;6087635;23;20613;-82
2021/09/21 05:12:56;;;;;;;11.50;9.70;;;12.10;99.90;;;;;;6090022;23;20600;-82
2021/09/21 05:15:34;;;;;;;12.47;10.50;;;11.90;99.90;;;;;;6089271;23;20865;-81
2021/09/21 05:18:22;;;;;;;11.87;10.63;;;11.80;99.90;;;;;;6088139;23;20687;-81
2021/09/21 05:21:08;;;;;;;14.03;11.60;;;11.70;99.90;;;;;;6082820;23;20993;-82
2021/09/21 05:23:51;;;;;;;12.07;10.80;;;11.60;99.90;;;;;;6089782;23;20913;-82
2021/09/21 05:26:38;;;;;;;12.67;11.37;;;11.60;99.90;;;;;;6087376;23;20607;-82
2021/09/21 05:29:24;;;;;;;12.87;10.80;;;11.70;99.90;;;;;;6088729;23;20731;-82
2021/09/21 05:32:00;;;;;;;11.50;10.30;;;11.50;99.90;;;;;;6089793;23;20535;-82
2021/09/21 05:34:46;;;;;;;11.80;10.60;;;11.60;99.90;;;;;;6082998;23;20684;-82
2021/09/21 05:37:27;;;;;;;15.60;10.87;;;11.70;99.90;;;;;;6088828;23;20602;-83
2021/09/21 05:40:06;;;;;;;11.30;9.90;;;11.70;99.90;;;;;;6089121;23;20563;-82
2021/09/21 05:42:39;;;;;;;12.33;11.00;;;11.80;99.90;;;;;;6090133;23;20530;-83
2021/09/21 05:45:26;;;;;;;11.27;10.00;;;11.70;99.90;;;;;;6088356;23;20618;-82
2021/09/21 05:48:01;;;;;;;12.80;10.20;;;11.80;99.90;;;;;;6089016;23;21127;-83
2021/09/21 05:50:42;;;;;;;12.53;10.93;;;11.90;99.90;;;;;;6082809;23;20950;-82
2021/09/21 05:53:18;;;;;;;13.40;11.27;;;11.80;99.90;;;;;;6089658;23;20579;-82
2021/09/21 05:55:55;;;;;;;13.03;11.67;;;11.90;99.90;;;;;;6089281;23;20579;-82
2021/09/21 05:58:28;;;;;;;11.30;9.43;;;11.80;99.90;;;;;;6087943;23;20567;-83
2021/09/21 06:01:15;;;;;;;12.00;10.70;;;11.80;99.90;;;;;;6087279;23;20596;-82
2021/09/21 06:04:02;;;;;;;13.33;10.50;;;11.70;99.90;;;;;;6089938;23;20568;-82
2021/09/21 06:06:50;;;;;;;13.47;11.00;;;11.80;99.90;;;;;;6086609;23;20583;-83
2021/09/21 06:09:31;;;;;;;12.30;10.50;;;11.90;99.90;;;;;;6088506;23;20584;-82
2021/09/21 06:12:02;;;;;;;14.00;10.70;;;11.90;99.90;;;;;;6087593;23;20560;-83
2021/09/21 06:14:49;;;;;;;17.10;11.97;;;11.80;99.90;;;;;;6086529;23;20596;-83
2021/09/21 06:17:34;;;;;;;14.53;10.40;;;11.70;99.90;;;;;;6088160;23;20571;-83
2021/09/21 06:20:10;;;;;;;12.40;10.30;;;11.60;99.90;;;;;;6089229;23;20637;-82
2021/09/21 06:22:58;;;;;;;12.63;10.53;;;11.70;99.90;;;;;;6088451;23;20587;-82
2021/09/21 06:25:34;;;;;;;11.10;10.00;;;11.70;99.90;;;;;;6089641;23;20578;-82
2021/09/21 06:28:21;;;;;;;12.03;10.70;;;11.80;99.90;;;;;;6088357;23;21214;-82
2021/09/21 06:31:01;;;;;;;11.10;9.90;;;11.90;99.90;;;;;;6088756;23;20567;-82
2021/09/21 06:33:47;;;;;;;12.60;11.40;;;11.90;99.90;;;;;;6088032;22;20681;-83
2021/09/21 06:36:21;;;;;;;14.10;11.67;;;11.80;99.90;;;;;;6088657;23;20563;-83
2021/09/21 06:38:58;;;;;;;12.93;11.63;;;11.80;99.90;;;;;;6089067;23;21217;-83
2021/09/21 06:41:44;;;;;;;16.43;10.73;;;11.80;99.90;;;;;;6087333;23;21163;-82
2021/09/21 06:44:17;;;;;;;12.40;10.40;;;11.70;99.90;;;;;;6088258;23;20529;-81
2021/09/21 06:47:04;;;;;;;12.20;10.97;;;11.70;99.90;;;;;;6086940;23;20975;-84
2021/09/21 06:49:39;;;;;;;12.27;10.37;;;11.90;99.90;;;;;;6089444;23;20913;-83
2021/09/21 06:52:10;;;;;;;12.60;11.10;;;12.10;99.90;;;;;;6088610;23;20571;-82
2021/09/21 06:54:56;;;;;;;12.90;11.30;;;11.90;99.90;;;;;;6087742;23;20652;-83
2021/09/21 06:57:30;;;;;;;13.97;12.40;;;11.80;99.90;;;;;;6088635;23;20532;-83
2021/09/21 07:00:05;;;;;;;12.33;11.13;;;11.90;99.90;;;;;;6088835;23;20540;-82
2021/09/21 07:02:40;;;;;;;12.07;10.97;;;12.00;99.90;;;;;;6088846;23;20926;-82
2021/09/21 07:05:15;;;;;;;13.30;11.10;;;11.90;99.90;;;;;;6088453;23;20871;-83
2021/09/21 07:07:51;;;;;;;12.00;10.27;;;11.90;99.90;;;;;;6087723;23;20538;-83
2021/09/21 07:10:27;;;;;;;13.97;11.40;;;12.20;99.90;;;;;;6089292;23;20567;-83
2021/09/21 07:13:14;;;;;;;13.90;11.20;;;12.40;99.90;;;;;;6087732;23;20639;-83
2021/09/21 07:15:51;;;;;;;11.63;10.43;;;12.50;99.90;;;;;;6089404;23;20607;-83
2021/09/21 07:18:23;;;;;;;11.30;10.20;;;12.40;99.60;;;;;;6088782;23;20577;-83
2021/09/21 07:20:53;;;;;;;12.27;11.00;;;12.50;99.60;;;;;;6088636;23;20588;-83
2021/09/21 07:23:30;;;;;;;11.50;10.30;;;12.40;98.70;;;;;;6082541;23;20663;-83
2021/09/21 07:26:08;;;;;;;11.67;10.50;;;12.70;99.00;;;;;;6077459;23;20659;-84
2021/09/21 07:28:49;;;;;;;11.57;10.33;;;12.70;99.30;;;;;;6081522;23;20600;-83
2021/09/21 07:31:20;;;;;;;10.50;9.40;;;12.80;99.20;;;;;;6087540;23;20616;-83
2021/09/21 07:33:56;;;;;;;11.73;10.17;;;12.70;99.10;;;;;;6087671;23;21134;-84
2021/09/21 07:36:28;;;;;;;11.23;9.57;;;12.90;99.40;;;;;;6088371;23;21036;-83
2021/09/21 07:39:00;;;;;;;11.87;10.03;;;13.00;99.00;;;;;;6086550;23;20885;-83
2021/09/21 07:41:43;;;;;;;12.10;10.80;;;13.30;98.50;;;;;;6088879;23;20539;-83
2021/09/21 07:44:30;;;;;;;11.40;9.60;;;13.30;97.30;;;;;;6088648;23;20571;-84
2021/09/21 07:47:05;;;;;;;14.23;9.90;;;13.30;97.90;;;;;;6086138;23;20593;-84
2021/09/21 07:49:51;;;;;;;12.90;10.17;;;13.40;98.00;;;;;;6087018;23;20647;-85
2021/09/21 07:52:22;;;;;;;11.40;10.23;;;13.70;97.10;;;;;;6088989;23;21072;-85
2021/09/21 07:55:00;;;;;;;14.20;11.83;;;13.80;96.40;;;;;;6088627;23;20597;-82
2021/09/21 07:57:48;;;;;;;9.70;8.70;;;13.90;96.20;;;;;;6087796;23;20601;-84
2021/09/21 08:00:35;;;;;;;11.53;9.57;;;14.20;95.00;;;;;;6087141;23;20652;-85
2021/09/21 08:03:23;;;;;;;11.27;8.97;;;14.00;95.30;;;;;;6085933;23;20593;-84
2021/09/21 08:06:00;;;;;;;10.40;9.37;;;14.00;95.30;;;;;;6089526;23;20613;-84
2021/09/21 08:08:43;;;;;;;10.37;9.37;;;14.20;94.90;;;;;;6088787;23;20598;-83
2021/09/21 08:11:17;;;;;;;9.10;8.30;;;14.00;93.70;;;;;;6088544;23;20574;-84
2021/09/21 08:13:50;;;;;;;9.63;8.63;;;14.00;93.90;;;;;;6088567;23;20602;-84
2021/09/21 08:16:30;;;;;;;9.80;8.87;;;13.80;93.60;;;;;;6082931;23;21119;-84
2021/09/21 08:19:06;;;;;;;11.63;8.77;;;13.90;93.70;;;;;;6088835;22;20939;-84
2021/09/21 08:21:39;;;;;;;9.57;8.67;;;13.90;94.10;;;;;;6084548;23;21173;-84
2021/09/21 08:24:13;;;;;;;10.13;9.13;;;14.00;94.00;;;;;;6087953;23;20531;-84
2021/09/21 08:26:48;;;;;;;10.63;9.67;;;14.30;92.70;;;;;;6089099;23;20871;-84
2021/09/21 08:29:22;;;;;;;12.40;10.23;;;14.30;93.10;;;;;;6081403;23;20629;-83
2021/09/21 08:32:01;;;;;;;11.23;9.70;;;13.90;93.40;;;;;;6088468;23;20602;-84
2021/09/21 08:34:41;;;;;;;10.33;9.40;;;14.00;93.70;;;;;;6088390;22;20594;-84
2021/09/21 08:37:12;;;;;;;10.53;8.50;;;14.10;93.30;;;;;;6088183;23;21088;-84
2021/09/21 08:39:59;;;;;;;9.70;8.80;;;14.20;93.20;;;;;;6086527;23;21196;-84
2021/09/21 08:42:47;;;;;;;10.90;9.80;;;14.20;93.40;;;;;;6087739;23;20566;-81
2021/09/21 08:45:25;;;;;;;10.30;9.30;;;14.40;93.20;;;;;;6088477;23;20581;-84
2021/09/21 08:48:11;;;;;;;11.20;9.43;;;14.20;92.20;;;;;;6088054;22;21150;-84
2021/09/21 08:50:53;;;;;;;9.20;8.27;;;14.40;92.30;;;;;;6089869;23;20645;-82
2021/09/21 08:53:26;;;;;;;8.33;7.53;;;14.90;90.80;;;;;;6079802;23;20609;-83
2021/09/21 08:55:59;;;;;;;8.17;7.47;;;15.00;87.00;;;;;;6090036;23;20531;-82
2021/09/21 08:58:34;;;;;;;8.50;7.70;;;15.20;86.90;;;;;;6089666;23;20578;-83
2021/09/21 09:01:19;;;;;;;9.87;8.37;;;15.20;87.00;;;;;;6090506;23;20561;-82
2021/09/21 09:03:54;;;;;;;8.20;7.40;;;15.30;85.60;;;;;;6090259;23;20557;-83
2021/09/21 09:06:42;;;;;;;12.70;8.37;;;15.30;86.90;;;;;;6089929;23;20578;-83
2021/09/21 09:09:21;;;;;;;11.27;7.93;;;15.50;84.90;;;;;;6089685;23;20577;-83
2021/09/21 09:12:05;;;;;;;11.13;8.00;;;15.40;83.70;;;;;;6089747;22;21187;-82
2021/09/21 09:14:40;;;;;;;8.33;7.53;;;15.20;85.90;;;;;;6090272;23;20560;-84
2021/09/21 09:17:15;;;;;;;8.00;7.20;;;15.40;85.80;;;;;;6089822;23;20540;-83
2021/09/21 09:20:00;;;;;;;7.77;6.90;;;15.70;82.70;;;;;;6089984;23;20582;-83
2021/09/21 09:22:31;;;;;;;8.00;7.30;;;15.80;82.10;;;;;;6089773;23;20629;-83
2021/09/21 09:25:18;;;;;;;8.33;7.60;;;15.60;83.50;;;;;;6087958;23;20636;-83
2021/09/21 09:27:50;;;;;;;9.00;7.73;;;15.50;83.40;;;;;;6089858;23;20644;-83
2021/09/21 09:30:25;;;;;;;8.43;7.63;;;15.50;83.10;;;;;;6089942;23;20624;-83
2021/09/21 09:33:14;;;;;;;8.83;7.97;;;15.20;83.10;;;;;;6088552;23;20610;-83
2021/09/21 09:35:47;;;;;;;8.63;7.70;;;15.10;84.40;;;;;;6089691;23;20613;-83
2021/09/21 09:38:25;;;;;;;8.13;7.43;;;15.10;85.00;;;;;;6089381;23;20545;-83
2021/09/21 09:40:58;;;;;;;7.47;6.77;;;15.10;84.60;;;;;;6089837;23;21124;-82
2021/09/21 09:43:44;;;;;;;7.73;6.73;;;15.20;85.20;;;;;;6089967;23;21123;-83
2021/09/21 09:46:21;;;;;;;9.00;8.20;;;14.90;84.50;;;;;;6084058;23;20645;-83
2021/09/21 09:49:04;;;;;;;8.70;7.87;;;15.10;85.50;;;;;;6086859;22;21397;-83
2021/09/21 09:51:43;;;;;;;8.30;7.50;;;15.10;84.90;;;;;;6085996;23;20582;-82
2021/09/21 09:54:32;;;;;;;8.40;7.60;;;15.00;84.00;;;;;;6085030;23;20579;-83
2021/09/21 09:57:15;;;;;;;8.50;7.70;;;15.50;83.30;;;;;;6089061;23;20539;-83
2021/09/21 09:59:53;;;;;;;10.00;9.00;;;15.10;82.70;;;;;;6090258;23;20930;-83
2021/09/21 10:02:27;;;;;;;9.03;8.17;;;14.80;82.30;;;;;;6089555;23;20627;-83
2021/09/21 10:05:12;;;;;;;9.53;8.60;;;15.10;83.20;;;;;;6084877;23;20641;-83
2021/09/21 10:07:47;;;;;;;9.13;8.23;;;15.20;82.90;;;;;;6089313;23;20573;-84
2021/09/21 10:10:36;;;;;;;9.00;7.77;;;15.50;82.90;;;;;;6087750;23;21049;-83
2021/09/21 10:13:15;;;;;;;9.37;8.57;;;15.40;80.30;;;;;;6088714;23;20577;-82
2021/09/21 10:15:49;;;;;;;9.73;8.70;;;15.10;80.50;;;;;;6080263;23;20597;-84
2021/09/21 10:18:27;;;;;;;9.07;8.17;;;15.20;83.70;;;;;;6089179;22;21006;-84
2021/09/21 10:21:04;;;;;;;9.90;8.43;;;15.50;83.50;;;;;;6089330;23;20539;-84
2021/09/21 10:23:42;;;;;;;10.23;7.87;;;15.80;82.60;;;;;;6089645;23;20543;-83
2021/09/21 10:26:15;;;;;;;7.77;7.07;;;16.00;80.10;;;;;;6089269;22;20583;-84
2021/09/21 10:28:52;;;;;;;12.80;8.33;;;16.20;82.90;;;;;;6089226;23;20922;-83
2021/09/21 10:31:34;;;;;;;8.93;8.03;;;16.20;80.70;;;;;;6089598;23;20622;-83
2021/09/21 10:34:11;;;;;;;8.50;7.60;;;16.10;82.10;;;;;;6090382;23;20586;-82
2021/09/21 10:36:50;;;;;;;9.70;7.97;;;15.70;80.80;;;;;;6089624;23;20609;-83
2021/09/21 10:39:24;;;;;;;9.73;8.73;;;15.40;80.70;;;;;;6089863;23;20531;-83
2021/09/21 10:42:13;;;;;;;9.40;8.60;;;15.00;81.20;;;;;;6088748;23;20587;-83
2021/09/21 10:44:52;;;;;;;9.50;8.50;;;15.40;82.90;;;;;;6090212;23;20593;-82
2021/09/21 10:47:27;;;;;;;9.80;8.90;;;15.60;83.90;;;;;;6089479;23;20567;-83
2021/09/21 10:50:14;;;;;;;8.47;7.67;;;15.80;80.40;;;;;;6088959;23;20654;-83
2021/09/21 10:52:48;;;;;;;8.87;7.97;;;15.70;81.90;;;;;;6089525;23;20556;-83
2021/09/21 10:55:20;;;;;;;10.00;9.00;;;15.90;84.10;;;;;;6088206;23;21250;-83
2021/09/21 10:58:03;;;;;;;9.73;8.83;;;15.90;83.60;;;;;;6089444;23;20198;-83
2021/09/21 11:00:38;;;;;;;8.73;7.93;;;15.80;82.20;;;;;;6087484;23;20590;-84
2021/09/21 11:03:15;;;;;;;8.80;8.00;;;16.00;81.40;;;;;;6086887;23;20566;-83
2021/09/21 11:05:54;;;;;;;9.47;8.57;;;16.40;81.70;;;;;;6088205;23;20542;-83
2021/09/21 11:08:31;;;;;;;8.73;7.97;;;16.60;83.80;;;;;;6082970;23;20594;-83
2021/09/21 11:11:10;;;;;;;8.70;7.90;;;17.00;83.00;;;;;;6087625;23;20653;-84
2021/09/21 11:13:57;;;;;;;9.73;8.73;;;17.20;76.90;;;;;;6087615;23;20595;-83
2021/09/21 11:16:34;;;;;;;9.27;8.37;;;17.20;76.90;;;;;;6088267;23;21066;-85
2021/09/21 11:19:18;;;;;;;9.30;7.67;;;17.30;76.40;;;;;;6088954;23;20640;-84
2021/09/21 11:22:01;;;;;;;7.20;6.60;;;17.30;76.50;;;;;;6089265;23;21081;-83
2021/09/21 11:24:43;;;;;;;8.67;7.77;;;17.10;79.20;;;;;;6088555;23;20538;-84
2021/09/21 11:27:17;;;;;;;8.53;7.50;;;16.90;79.50;;;;;;6088831;23;20689;-84
2021/09/21 11:30:01;;;;;;;8.30;7.60;;;16.70;76.90;;;;;;6088730;23;20917;-84
2021/09/21 11:32:44;;;;;;;8.07;7.33;;;16.50;79.50;;;;;;6088729;23;20573;-84
2021/09/21 11:35:21;;;;;;;7.30;6.70;;;16.60;78.90;;;;;;6088183;23;20622;-84
2021/09/21 11:37:53;;;;;;;7.93;7.23;;;16.80;80.40;;;;;;6089095;22;20602;-84
2021/09/21 11:40:34;;;;;;;8.40;7.60;;;17.00;78.20;;;;;;6089471;23;20535;-84
2021/09/21 11:43:06;;;;;;;8.23;7.43;;;16.80;76.50;;;;;;6083141;23;20642;-85
2021/09/21 11:45:47;;;;;;;8.40;7.70;;;17.10;77.00;;;;;;6085439;23;21096;-84
2021/09/21 11:48:21;;;;;;;7.20;6.60;;;16.80;76.70;;;;;;6087070;23;20563;-86
2021/09/21 11:50:53;;;;;;;9.87;8.93;;;16.80;80.30;;;;;;6082031;23;20628;-85
2021/09/21 11:53:41;;;;;;;8.67;7.87;;;16.80;79.10;;;;;;6086162;23;20582;-85
2021/09/21 11:56:20;;;;;;;9.03;8.13;;;17.40;78.00;;;;;;6088984;23;20685;-86
2021/09/21 11:59:04;;;;;;;8.00;7.30;;;17.60;76.70;;;;;;6086766;23;20594;-86
2021/09/21 12:01:37;;;;;;;8.37;7.57;;;17.70;76.80;;;;;;6087791;23;20626;-85
2021/09/21 12:04:12;;;;;;;7.80;7.10;;;17.40;80.10;;;;;;6087486;23;21194;-85
2021/09/21 12:06:45;;;;;;;8.33;7.40;;;17.40;80.10;;;;;;6088231;23;20540;-84
2021/09/21 12:09:30;;;;;;;9.13;8.23;;;17.60;79.60;;;;;;6088388;23;20593;-85
2021/09/21 12:12:21;;;;;;;9.07;8.17;;;17.50;75.20;;;;;;6086577;23;20563;-85
2021/09/21 12:15:01;;;;;;;8.80;7.93;;;17.60;77.50;;;;;;6087030;23;20648;-85
2021/09/21 12:17:41;;;;;;;11.07;8.23;;;17.30;77.90;;;;;;6083847;23;21142;-85
2021/09/21 12:20:32;;;;;;;10.30;7.80;;;17.10;76.70;;;;;;6080970;23;20593;-86
2021/09/21 12:23:16;;;;;;;9.07;8.13;;;17.20;76.90;;;;;;6081812;23;20698;-84
2021/09/21 12:25:51;;;;;;;8.60;7.30;;;16.80;78.00;;;;;;6090323;23;20527;-85
2021/09/21 12:28:35;;;;;;;8.90;8.07;;;16.90;77.90;;;;;;6089560;23;20594;-82
2021/09/21 12:31:13;;;;;;;8.90;8.00;;;17.00;77.00;;;;;;6081752;23;20685;-82
2021/09/21 12:33:48;;;;;;;8.90;8.20;;;16.90;78.10;;;;;;6090472;23;20535;-83
2021/09/21 12:36:42;;;;;;;11.47;8.50;;;16.50;76.70;;;;;;6089560;23;20545;-83
2021/09/21 12:39:18;;;;;;;10.63;9.10;;;16.40;78.90;;;;;;6090148;23;20540;-83
2021/09/21 12:41:56;;;;;;;9.57;8.27;;;16.30;77.30;;;;;;6088589;23;20640;-83
2021/09/21 12:44:33;;;;;;;9.17;8.20;;;16.80;79.00;;;;;;6087979;22;20604;-83
2021/09/21 12:47:08;;;;;;;9.33;8.53;;;17.20;77.90;;;;;;6083667;23;20605;-84
2021/09/21 12:49:47;;;;;;;8.50;7.60;;;17.40;77.30;;;;;;6086679;22;20682;-84
2021/09/21 12:52:17;;;;;;;8.63;7.93;;;17.60;75.10;;;;;;6088692;23;20583;-83
2021/09/21 12:54:53;;;;;;;10.23;9.33;;;17.90;78.90;;;;;;6088898;22;20985;-83
2021/09/21 12:57:27;;;;;;;9.67;8.77;;;18.10;77.70;;;;;;6089457;22;20738;-83
2021/09/21 13:00:08;;;;;;;8.67;7.97;;;17.60;74.20;;;;;;6089537;23;20530;-84
2021/09/21 13:02:43;;;;;;;8.93;7.90;;;17.50;76.70;;;;;;6088004;23;20531;-84
2021/09/21 13:05:14;;;;;;;8.50;7.77;;;17.50;77.40;;;;;;6087778;23;20765;-83
2021/09/21 13:07:55;;;;;;;8.67;7.87;;;17.30;77.00;;;;;;6087537;23;20901;-83
2021/09/21 13:10:42;;;;;;;9.93;9.03;;;16.80;76.40;;;;;;6086424;23;20601;-84
2021/09/21 13:13:18;;;;;;;10.20;8.10;;;16.40;76.80;;;;;;6086070;22;20712;-84
2021/09/21 13:15:55;;;;;;;9.40;8.50;;;16.30;79.10;;;;;;6087799;23;20602;-86
2021/09/21 13:18:29;;;;;;;9.47;8.47;;;16.80;78.30;;;;;;6087361;23;20587;-86
2021/09/21 13:21:03;;;;;;;7.73;7.03;;;17.00;80.20;;;;;;6087723;23;20926;-85
2021/09/21 13:23:51;;;;;;;7.40;6.70;;;17.30;77.80;;;;;;6086950;23;21161;-85
2021/09/21 13:26:24;;;;;;;8.10;7.40;;;17.40;78.80;;;;;;6087822;23;20593;-85
2021/09/21 13:28:58;;;;;;;8.27;7.57;;;17.10;76.50;;;;;;6086547;22;20605;-85
2021/09/21 13:31:35;;;;;;;9.43;8.47;;;17.10;79.50;;;;;;6089231;23;20597;-89
2021/09/21 13:34:13;;;;;;;8.47;7.67;;;17.20;79.20;;;;;;6089620;23;20534;-86
2021/09/21 13:36:46;;;;;;;8.53;7.83;;;17.50;77.80;;;;;;6088934;23;21111;-86
2021/09/21 13:39:24;;;;;;;7.50;6.87;;;17.50;79.60;;;;;;6090226;22;20586;-86
2021/09/21 13:41:54;;;;;;;8.77;7.97;;;17.60;80.40;;;;;;6090237;23;20570;-86
2021/09/21 13:44:30;;;;;;;8.70;7.80;;;17.50;78.50;;;;;;6090326;23;20531;-85
2021/09/21 13:47:05;;;;;;;9.33;8.33;;;17.10;75.40;;;;;;6090357;22;20583;-85
2021/09/21 13:49:41;;;;;;;8.63;7.83;;;16.60;76.80;;;;;;6090242;23;21066;-86
2021/09/21 13:52:12;;;;;;;10.27;8.27;;;16.60;79.80;;;;;;6090357;23;20571;-85
2021/09/21 13:54:55;;;;;;;8.23;7.43;;;16.50;78.90;;;;;;6090005;22;20635;-85
2021/09/21 13:57:32;;;;;;;9.17;8.10;;;16.50;78.10;;;;;;6090077;23;20584;-85
2021/09/21 14:00:15;;;;;;;8.10;7.40;;;16.20;77.90;;;;;;6090142;23;20922;-85